createdAt,value
2023-02-08T00:00:44.560Z,1.24
2023-02-08T00:03:29.646Z,1.22
2023-02-08T00:09:51.687Z,1.19
2023-02-08T00:12:43.377Z,1.23
2023-02-08T00:15:43.925Z,1.26
2023-02-08T00:18:43.358Z,1.25
2023-02-08T00:21:38.965Z,1.29
2023-02-08T00:24:26.430Z,1.20
2023-02-08T00:27:16.380Z,1.15
2023-02-08T00:30:24.912Z,1.11
2023-02-08T00:33:50.367Z,1.08
2023-02-08T00:36:54.662Z,1.08
2023-02-08T00:42:35.220Z,1.01
2023-02-08T00:45:29.460Z,0.99
2023-02-08T00:48:20.316Z,1.04
2023-02-08T00:51:29.645Z,1.07
2023-02-08T00:54:36.828Z,0.97
2023-02-08T00:57:35.464Z,0.95
2023-02-08T01:00:28.865Z,0.96
2023-02-08T01:03:22.005Z,0.87
2023-02-08T01:06:35.166Z,0.77
2023-02-08T01:09:58.116Z,0.90
2023-02-08T01:12:39.966Z,0.90
2023-02-08T01:18:55.654Z,0.86
2023-02-08T01:24:30.921Z,0.89
2023-02-08T01:27:17.316Z,0.85
2023-02-08T01:30:11.008Z,0.79
2023-02-08T01:32:54.895Z,0.79
2023-02-08T01:35:41.856Z,0.75
2023-02-08T01:38:26.800Z,0.86
2023-02-08T01:41:32.519Z,0.92
2023-02-08T01:44:51.487Z,0.83
2023-02-08T01:47:46.714Z,0.86
2023-02-08T01:50:18.642Z,0.78
2023-02-08T01:53:22.675Z,0.75
2023-02-08T01:56:33.397Z,0.77
2023-02-08T01:59:55.228Z,0.76
2023-02-08T02:02:35.792Z,0.71
2023-02-08T02:05:27.252Z,0.73
2023-02-08T02:09:06.463Z,0.81
2023-02-08T02:12:18.954Z,0.81
2023-02-08T02:15:04.751Z,0.74
2023-02-08T02:18:06.379Z,0.71
2023-02-08T02:21:20.744Z,0.77
2023-02-08T02:28:05.168Z,0.68
2023-02-08T02:31:21.605Z,0.63
2023-02-08T02:34:19.744Z,0.60
2023-02-08T02:37:07.324Z,0.61
2023-02-08T02:39:57.419Z,0.59
2023-02-08T02:42:52.889Z,0.55
2023-02-08T02:45:29.395Z,0.50
2023-02-08T02:48:04.780Z,0.52
2023-02-08T02:50:37.894Z,0.64
2023-02-08T02:53:20.861Z,0.62
2023-02-08T02:55:51.684Z,0.46
2023-02-08T02:58:23.044Z,0.52
2023-02-08T03:00:54.989Z,0.56
2023-02-08T03:03:25.244Z,0.55
2023-02-08T03:05:57.843Z,0.55
2023-02-08T03:08:56.533Z,0.53
2023-02-08T03:11:27.439Z,0.44
2023-02-08T03:14:10.436Z,0.42
2023-02-08T03:17:00.556Z,0.54
2023-02-08T03:19:36.344Z,0.57
2023-02-08T03:22:13.539Z,0.60
2023-02-08T03:24:47.742Z,0.62
2023-02-08T03:27:23.866Z,0.57
2023-02-08T03:29:57.138Z,0.53
2023-02-08T03:32:30.977Z,0.54
2023-02-08T03:35:04.674Z,0.52
2023-02-08T03:37:38.139Z,0.60
2023-02-08T03:40:12.264Z,0.65
2023-02-08T03:42:41.394Z,0.67
2023-02-08T03:45:15.853Z,0.64
2023-02-08T03:47:47.368Z,0.34
2023-02-08T03:50:18.403Z,0.30
2023-02-08T03:52:49.268Z,0.33
2023-02-08T03:55:21.443Z,0.38
2023-02-08T03:57:53.256Z,0.32
2023-02-08T04:00:22.805Z,0.35
2023-02-08T04:03:00.571Z,0.40
2023-02-08T04:05:29.506Z,0.32
2023-02-08T04:07:58.754Z,0.31
2023-02-08T04:10:26.754Z,0.30
2023-02-08T04:12:54.739Z,0.21
2023-02-08T04:15:23.459Z,0.18
2023-02-08T04:17:51.596Z,0.20
2023-02-08T04:20:19.793Z,0.12
2023-02-08T04:22:47.639Z,0.05
2023-02-08T04:25:17.091Z,0.09
2023-02-08T04:27:44.938Z,0.07
2023-02-08T04:30:13.923Z,0.04
2023-02-08T04:32:41.804Z,0.05
2023-02-08T04:35:09.688Z,-0.02
2023-02-08T04:37:37.644Z,0.02
2023-02-08T04:40:06.226Z,0.00
2023-02-08T04:42:36.019Z,0.03
2023-02-08T04:45:04.001Z,0.05
2023-02-08T04:47:32.036Z,-0.01
2023-02-08T04:49:59.858Z,-0.08
2023-02-08T04:52:27.746Z,-0.17
2023-02-08T04:54:55.708Z,-0.15
2023-02-08T04:57:23.560Z,-0.14
2023-02-08T04:59:52.818Z,-0.07
2023-02-08T05:02:20.790Z,-0.13
2023-02-08T05:04:48.664Z,-0.22
2023-02-08T05:07:16.567Z,-0.23
2023-02-08T05:09:44.738Z,-0.24
2023-02-08T05:12:12.653Z,-0.28
2023-02-08T05:14:40.774Z,-0.28
2023-02-08T05:17:10.123Z,-0.30
2023-02-08T05:19:38.101Z,-0.26
2023-02-08T05:22:06.093Z,-0.22
2023-02-08T05:24:34.024Z,-0.22
2023-02-08T05:27:01.975Z,-0.25
2023-02-08T05:29:30.018Z,-0.37
2023-02-08T05:31:58.104Z,-0.31
2023-02-08T05:34:27.394Z,-0.29
2023-02-08T05:36:56.024Z,-0.30
2023-02-08T05:39:24.052Z,-0.30
2023-02-08T05:41:51.940Z,-0.32
2023-02-08T05:44:19.846Z,-0.36
2023-02-08T05:46:48.034Z,-0.36
2023-02-08T05:49:15.942Z,-0.35
2023-02-08T05:51:45.158Z,-0.29
2023-02-08T05:54:13.137Z,-0.31
2023-02-08T05:56:40.997Z,-0.23
2023-02-08T05:59:10.035Z,-0.22
2023-02-08T06:01:38.522Z,-0.22
2023-02-08T06:04:06.759Z,-0.24
2023-02-08T06:06:34.679Z,-0.24
2023-02-08T06:09:04.953Z,-0.32
2023-02-08T06:11:33.068Z,-0.31
2023-02-08T06:14:01.088Z,-0.27
2023-02-08T06:16:29.119Z,-0.30
2023-02-08T06:18:57.076Z,-0.28
2023-02-08T06:21:25.057Z,-0.29
2023-02-08T06:23:53.127Z,-0.23
2023-02-08T06:26:22.356Z,-0.23
2023-02-08T06:28:50.228Z,-0.27
2023-02-08T06:31:18.276Z,-0.32
2023-02-08T06:33:46.273Z,-0.21
2023-02-08T06:36:14.169Z,-0.31
2023-02-08T06:38:42.180Z,-0.24
2023-02-08T06:41:10.038Z,-0.31
2023-02-08T06:43:40.786Z,-0.45
2023-02-08T06:46:08.819Z,-0.47
2023-02-08T06:48:36.827Z,-0.44
2023-02-08T06:51:05.476Z,-0.41
2023-02-08T06:53:33.542Z,-0.39
2023-02-08T06:56:01.441Z,-0.41
2023-02-08T06:58:29.304Z,-0.40
2023-02-08T07:00:58.649Z,-0.44
2023-02-08T07:03:26.551Z,-0.43
2023-02-08T07:06:04.421Z,-0.38
2023-02-08T07:08:33.289Z,-0.43
2023-02-08T07:11:01.140Z,-0.36
2023-02-08T07:13:28.993Z,-0.35
2023-02-08T07:15:58.339Z,-0.37
2023-02-08T07:18:26.304Z,-0.43
2023-02-08T07:20:54.191Z,-0.35
2023-02-08T07:23:22.202Z,-0.34
2023-02-08T07:25:58.707Z,-0.28
2023-02-08T07:28:27.070Z,-0.24
2023-02-08T07:30:55.064Z,-0.34
2023-02-08T07:33:25.202Z,-0.32
2023-02-08T07:35:53.610Z,-0.21
2023-02-08T07:38:21.425Z,-0.12
2023-02-08T07:40:49.555Z,-0.04
2023-02-08T07:43:17.492Z,0.00
2023-02-08T07:45:45.585Z,-0.02
2023-02-08T07:48:13.487Z,0.02
2023-02-08T07:50:42.859Z,0.01
2023-02-08T07:53:10.954Z,-0.02
2023-02-08T07:55:39.061Z,0.00
2023-02-08T07:58:07.293Z,0.12
2023-02-08T08:00:35.147Z,0.18
2023-02-08T08:03:03.350Z,0.22
2023-02-08T08:05:31.444Z,0.23
2023-02-08T08:08:00.696Z,0.25
2023-02-08T08:10:28.710Z,0.30
2023-02-08T08:12:56.569Z,0.29
2023-02-08T08:15:24.419Z,0.35
2023-02-08T08:17:52.321Z,0.39
2023-02-08T08:20:20.513Z,0.49
2023-02-08T08:22:48.451Z,0.35
2023-02-08T08:25:17.829Z,0.23
2023-02-08T08:27:46.210Z,0.31
2023-02-08T08:30:17.260Z,0.32
2023-02-08T08:32:45.356Z,0.36
2023-02-08T08:35:13.332Z,0.37
2023-02-08T08:37:41.256Z,0.42
2023-02-08T08:40:10.974Z,0.58
2023-02-08T08:42:40.963Z,0.74
2023-02-08T08:45:10.558Z,0.71
2023-02-08T08:47:38.400Z,0.84
2023-02-08T08:50:07.004Z,0.95
2023-02-08T08:52:34.934Z,0.98
2023-02-08T08:55:02.951Z,0.96
2023-02-08T08:57:31.048Z,1.03
2023-02-08T09:00:00.260Z,1.06
2023-02-08T09:02:28.216Z,1.18
2023-02-08T09:04:56.075Z,1.31
2023-02-08T09:07:24.004Z,1.28
2023-02-08T09:09:52.265Z,1.37
2023-02-08T09:12:20.377Z,1.47
2023-02-08T09:14:49.024Z,1.44
2023-02-08T09:17:18.823Z,1.38
2023-02-08T09:19:47.418Z,1.40
2023-02-08T09:22:16.458Z,1.50
2023-02-08T09:24:44.734Z,1.63
2023-02-08T09:27:15.973Z,1.63
2023-02-08T09:29:43.983Z,1.60
2023-02-08T09:32:12.271Z,1.55
2023-02-08T09:34:41.637Z,1.66
2023-02-08T09:37:09.593Z,1.83
2023-02-08T09:39:37.524Z,1.95
2023-02-08T09:42:32.001Z,2.05
2023-02-08T09:45:20.596Z,2.02
2023-02-08T09:47:55.972Z,1.96
2023-02-08T09:50:33.101Z,2.14
2023-02-08T09:53:05.935Z,2.18
2023-02-08T09:55:38.227Z,2.33
2023-02-08T09:58:20.518Z,2.33
2023-02-08T10:00:51.322Z,2.45
2023-02-08T10:03:30.244Z,2.45
2023-02-08T10:06:00.037Z,2.46
2023-02-08T10:08:35.318Z,2.48
2023-02-08T10:11:19.073Z,2.53
2023-02-08T10:14:02.864Z,2.63
2023-02-08T10:16:56.820Z,2.49
2023-02-08T10:19:43.862Z,2.48
2023-02-08T10:22:28.422Z,2.57
2023-02-08T10:25:11.123Z,2.69
2023-02-08T10:27:51.946Z,2.75
2023-02-08T10:30:34.199Z,2.78
2023-02-08T10:33:03.522Z,2.79
2023-02-08T10:35:37.480Z,2.78
2023-02-08T10:38:37.165Z,2.86
2023-02-08T10:41:10.286Z,2.81
2023-02-08T10:43:44.213Z,2.87
2023-02-08T10:46:23.944Z,2.89
2023-02-08T10:49:04.079Z,3.06
2023-02-08T10:51:32.144Z,2.96
2023-02-08T10:54:01.372Z,2.99
2023-02-08T10:56:45.275Z,3.09
2023-02-08T10:59:22.901Z,3.14
2023-02-08T11:01:51.965Z,3.21
2023-02-08T11:04:23.203Z,3.29
2023-02-08T11:06:54.366Z,3.41
2023-02-08T11:09:26.958Z,3.53
2023-02-08T11:11:56.377Z,3.59
2023-02-08T11:14:37.902Z,3.67
2023-02-08T11:17:27.423Z,3.73
2023-02-08T11:19:56.033Z,3.66
2023-02-08T11:22:27.767Z,3.78
2023-02-08T11:25:00.610Z,3.88
2023-02-08T11:27:36.493Z,3.94
2023-02-08T11:30:25.585Z,4.01
2023-02-08T11:33:23.381Z,3.93
2023-02-08T11:35:57.851Z,3.98
2023-02-08T11:38:28.608Z,4.07
2023-02-08T11:41:01.834Z,4.08
2023-02-08T11:43:32.807Z,4.14
2023-02-08T11:46:03.773Z,4.18
2023-02-08T11:48:41.303Z,4.29
2023-02-08T11:51:11.578Z,4.37
2023-02-08T11:53:42.507Z,4.54
2023-02-08T11:56:20.145Z,4.65
2023-02-08T11:59:03.778Z,4.60
2023-02-08T12:01:34.482Z,4.50
2023-02-08T12:04:05.698Z,4.55
2023-02-08T12:07:08.603Z,4.64
2023-02-08T12:10:12.072Z,4.75
2023-02-08T12:12:54.879Z,4.75
2023-02-08T12:15:31.951Z,4.86
2023-02-08T12:18:16.557Z,4.87
2023-02-08T12:20:52.124Z,4.90
2023-02-08T12:23:37.620Z,4.92
2023-02-08T12:26:22.384Z,4.79
2023-02-08T12:29:04.216Z,4.89
2023-02-08T12:31:46.456Z,4.84
2023-02-08T12:34:25.342Z,4.99
2023-02-08T12:37:26.460Z,5.05
2023-02-08T12:40:19.804Z,5.10
2023-02-08T12:42:59.146Z,5.22
2023-02-08T12:45:49.851Z,5.35
2023-02-08T12:48:28.622Z,5.28
2023-02-08T12:51:07.605Z,5.22
2023-02-08T12:53:40.987Z,5.18
2023-02-08T12:56:24.912Z,5.20
2023-02-08T12:59:01.979Z,5.25
2023-02-08T13:01:44.491Z,5.46
2023-02-08T13:04:16.147Z,5.56
2023-02-08T13:06:46.195Z,5.64
2023-02-08T13:09:21.724Z,5.64
2023-02-08T13:11:54.692Z,5.70
2023-02-08T13:14:33.618Z,5.73
2023-02-08T13:17:13.298Z,5.88
2023-02-08T13:19:59.983Z,5.99
2023-02-08T13:22:32.560Z,5.94
2023-02-08T13:25:07.436Z,5.93
2023-02-08T13:27:36.712Z,5.93
2023-02-08T13:30:06.469Z,5.86
2023-02-08T13:32:43.909Z,5.84
2023-02-08T13:35:21.347Z,5.92
2023-02-08T13:37:53.858Z,5.94
2023-02-08T13:40:28.529Z,6.11
2023-02-08T13:43:01.396Z,6.24
2023-02-08T13:45:40.737Z,6.31
2023-02-08T13:48:15.574Z,6.25
2023-02-08T13:50:48.542Z,6.22
2023-02-08T13:53:17.900Z,6.21
2023-02-08T13:55:58.112Z,6.21
2023-02-08T13:59:04.944Z,6.31
2023-02-08T14:01:35.937Z,6.23
2023-02-08T14:04:33.429Z,6.18
2023-02-08T14:07:13.758Z,6.25
2023-02-08T14:10:06.087Z,6.27
2023-02-08T14:12:41.224Z,6.24
2023-02-08T14:15:39.947Z,6.30
2023-02-08T14:18:25.602Z,6.23
2023-02-08T14:21:03.666Z,6.22
2023-02-08T14:23:40.202Z,6.27
2023-02-08T14:26:20.746Z,6.29
2023-02-08T14:28:56.291Z,6.26
2023-02-08T14:31:36.898Z,6.25
2023-02-08T14:34:05.053Z,6.24
2023-02-08T14:36:36.312Z,6.24
2023-02-08T14:39:22.605Z,6.22
2023-02-08T14:42:00.252Z,6.26
2023-02-08T14:45:02.635Z,6.25
2023-02-08T14:47:55.286Z,6.25
2023-02-08T14:50:29.213Z,6.19
2023-02-08T14:53:16.831Z,6.24
2023-02-08T14:55:49.709Z,6.22
2023-02-08T14:58:27.107Z,6.15
2023-02-08T15:00:56.961Z,6.13
2023-02-08T15:03:26.638Z,6.17
2023-02-08T15:06:49.963Z,6.08
2023-02-08T15:09:22.073Z,5.90
2023-02-08T15:12:00.019Z,5.84
2023-02-08T15:14:28.713Z,5.93
2023-02-08T15:16:57.984Z,5.94
2023-02-08T15:19:29.641Z,5.85
2023-02-08T15:22:20.874Z,5.84
2023-02-08T15:24:57.711Z,5.69
2023-02-08T15:27:28.323Z,5.63
2023-02-08T15:29:56.513Z,5.69
2023-02-08T15:32:26.735Z,5.54
2023-02-08T15:34:57.471Z,5.55
2023-02-08T15:37:26.288Z,5.57
2023-02-08T15:39:58.329Z,5.53
2023-02-08T15:42:28.891Z,5.47
2023-02-08T15:44:57.916Z,5.43
2023-02-08T15:47:30.420Z,5.41
2023-02-08T15:49:59.724Z,5.39
2023-02-08T15:52:31.265Z,5.38
2023-02-08T15:55:00.827Z,5.43
2023-02-08T15:57:36.018Z,5.46
2023-02-08T16:00:07.733Z,5.40
2023-02-08T16:02:36.522Z,5.35
2023-02-08T16:05:13.751Z,5.35
2023-02-08T16:07:46.059Z,5.20
2023-02-08T16:10:26.424Z,5.23
2023-02-08T16:12:57.554Z,5.11
2023-02-08T16:15:45.151Z,5.19
2023-02-08T16:18:36.282Z,5.13
2023-02-08T16:21:06.714Z,5.08
2023-02-08T16:23:38.611Z,5.05
2023-02-08T16:26:22.206Z,5.02
2023-02-08T16:28:59.283Z,4.96
2023-02-08T16:31:35.670Z,4.90
2023-02-08T16:34:06.439Z,4.92
2023-02-08T16:36:41.609Z,4.92
2023-02-08T16:39:36.294Z,4.92
2023-02-08T16:42:16.221Z,4.85
2023-02-08T16:45:00.491Z,4.76
2023-02-08T16:47:35.821Z,4.65
2023-02-08T16:50:03.851Z,4.59
2023-02-08T16:52:31.956Z,4.57
2023-02-08T16:55:00.447Z,4.57
2023-02-08T16:57:41.681Z,4.48
2023-02-08T17:00:26.083Z,4.38
2023-02-08T17:02:54.902Z,4.41
2023-02-08T17:05:24.544Z,4.45
2023-02-08T17:07:52.838Z,4.48
2023-02-08T17:10:27.639Z,4.44
2023-02-08T17:13:13.448Z,4.42
2023-02-08T17:15:47.255Z,4.28
2023-02-08T17:18:18.440Z,4.31
2023-02-08T17:20:59.726Z,4.28
2023-02-08T17:23:28.270Z,4.29
2023-02-08T17:25:56.273Z,4.27
2023-02-08T17:28:25.990Z,4.25
2023-02-08T17:30:54.435Z,4.21
2023-02-08T17:33:22.406Z,4.13
2023-02-08T17:35:52.416Z,4.14
2023-02-08T17:38:21.573Z,4.15
2023-02-08T17:40:49.593Z,4.11
2023-02-08T17:43:17.911Z,4.06
2023-02-08T17:45:48.126Z,4.00
2023-02-08T17:48:16.183Z,4.02
2023-02-08T17:50:50.976Z,3.99
2023-02-08T17:53:19.694Z,3.87
2023-02-08T17:55:47.943Z,3.86
2023-02-08T17:58:16.041Z,3.87
2023-02-08T18:00:46.460Z,3.76
2023-02-08T18:03:18.149Z,3.76
2023-02-08T18:05:46.074Z,3.78
2023-02-08T18:08:14.298Z,3.72
2023-02-08T18:10:42.712Z,3.70
2023-02-08T18:13:10.846Z,3.65
2023-02-08T18:15:38.724Z,3.68
2023-02-08T18:18:06.810Z,3.59
2023-02-08T18:20:36.073Z,3.53
2023-02-08T18:23:03.972Z,3.42
2023-02-08T18:25:31.959Z,3.52
2023-02-08T18:27:59.861Z,3.48
2023-02-08T18:30:28.084Z,3.45
2023-02-08T18:32:56.185Z,3.36
2023-02-08T18:35:24.078Z,3.33
2023-02-08T18:37:53.738Z,3.34
2023-02-08T18:40:21.986Z,3.30
2023-02-08T18:42:50.010Z,3.21
2023-02-08T18:45:18.238Z,3.16
2023-02-08T18:47:46.483Z,3.24
2023-02-08T18:50:14.554Z,3.24
2023-02-08T18:52:42.461Z,3.23
2023-02-08T18:55:11.995Z,3.13
2023-02-08T18:57:41.114Z,3.04
2023-02-08T19:00:10.830Z,3.02
2023-02-08T19:02:39.714Z,2.91
2023-02-08T19:05:08.509Z,2.85
2023-02-08T19:07:36.692Z,2.83
2023-02-08T19:10:05.677Z,2.83
2023-02-08T19:12:37.387Z,2.79
2023-02-08T19:15:07.459Z,2.84
2023-02-08T19:17:35.492Z,2.69
2023-02-08T19:20:03.535Z,2.71
2023-02-08T19:22:31.679Z,2.66
2023-02-08T19:24:59.526Z,2.65
2023-02-08T19:27:27.368Z,2.54
2023-02-08T19:29:57.188Z,2.58
2023-02-08T19:32:25.223Z,2.44
2023-02-08T19:34:53.099Z,2.43
2023-02-08T19:37:21.172Z,2.46
2023-02-08T19:39:49.150Z,2.47
2023-02-08T19:42:17.056Z,2.57
2023-02-08T19:44:45.028Z,2.56
2023-02-08T19:47:14.394Z,2.49
2023-02-08T19:49:42.444Z,2.49
2023-02-08T19:52:10.348Z,2.45
2023-02-08T19:54:38.291Z,2.40
2023-02-08T19:57:06.614Z,2.34
2023-02-08T19:59:35.440Z,2.33
2023-02-08T20:02:03.749Z,2.24
2023-02-08T20:04:33.598Z,2.20
2023-02-08T20:07:02.020Z,2.27
2023-02-08T20:09:29.912Z,2.29
2023-02-08T20:11:59.567Z,2.33
2023-02-08T20:14:40.083Z,2.28
2023-02-08T20:17:13.719Z,2.22
2023-02-08T20:19:45.125Z,2.30
2023-02-08T20:22:15.022Z,2.24
2023-02-08T20:24:46.663Z,2.16
2023-02-08T20:27:14.632Z,2.06
2023-02-08T20:29:42.581Z,2.07
2023-02-08T20:32:10.738Z,2.07
2023-02-08T20:34:40.954Z,2.03
2023-02-08T20:37:20.905Z,2.03
2023-02-08T20:39:48.894Z,2.06
2023-02-08T20:42:16.908Z,2.06
2023-02-08T20:44:45.068Z,2.03
2023-02-08T20:47:14.248Z,1.95
2023-02-08T20:49:44.361Z,1.95
2023-02-08T20:52:12.893Z,2.01
2023-02-08T20:54:42.653Z,2.04
2023-02-08T20:57:13.749Z,1.99
2023-02-08T20:59:42.053Z,1.95
2023-02-08T21:02:16.519Z,1.95
2023-02-08T21:04:44.447Z,1.92
2023-02-08T21:07:12.509Z,1.86
2023-02-08T21:09:40.700Z,1.91
2023-02-08T21:12:10.205Z,1.80
2023-02-08T21:14:38.238Z,1.75
2023-02-08T21:17:06.539Z,1.75
2023-02-08T21:19:34.491Z,1.72
2023-02-08T21:22:04.208Z,1.75
2023-02-08T21:24:32.228Z,1.76
2023-02-08T21:27:00.092Z,1.78
2023-02-08T21:29:32.795Z,1.74
2023-02-08T21:32:00.785Z,1.80
2023-02-08T21:34:29.347Z,1.71
2023-02-08T21:37:00.693Z,1.68
2023-02-08T21:39:28.690Z,1.65
2023-02-08T21:41:56.937Z,1.59
2023-02-08T21:44:24.914Z,1.56
2023-02-08T21:46:54.545Z,1.56
2023-02-08T21:49:40.272Z,1.53
2023-02-08T21:52:25.609Z,1.55
2023-02-08T21:54:54.084Z,1.55
2023-02-08T21:57:23.686Z,1.51
2023-02-08T21:59:53.795Z,1.49
2023-02-08T22:02:25.677Z,1.51
2023-02-08T22:05:11.884Z,1.44
2023-02-08T22:07:45.681Z,1.42
2023-02-08T22:10:15.727Z,1.37
2023-02-08T22:12:43.630Z,1.34
2023-02-08T22:15:12.848Z,1.31
2023-02-08T22:17:42.534Z,1.35
2023-02-08T22:20:11.451Z,1.34
2023-02-08T22:22:39.698Z,1.36
2023-02-08T22:25:08.130Z,1.34
2023-02-08T22:27:36.010Z,1.34
2023-02-08T22:30:05.939Z,1.36
2023-02-08T22:32:34.097Z,1.35
2023-02-08T22:35:03.694Z,1.24
2023-02-08T22:37:33.783Z,1.21
2023-02-08T22:40:01.908Z,1.01
2023-02-08T22:42:30.273Z,1.10
2023-02-08T22:44:58.415Z,1.12
2023-02-08T22:47:26.620Z,1.17
2023-02-08T22:49:58.487Z,1.17
2023-02-08T22:52:28.367Z,1.24
2023-02-08T22:54:56.624Z,1.25
2023-02-08T22:57:24.610Z,1.20
2023-02-08T22:59:52.753Z,1.14
2023-02-08T23:02:20.648Z,1.16
2023-02-08T23:04:48.655Z,1.13
2023-02-08T23:07:16.809Z,1.12
2023-02-08T23:09:46.717Z,1.05
2023-02-08T23:12:14.733Z,0.99
2023-02-08T23:14:42.689Z,1.06
2023-02-08T23:17:11.591Z,1.01
2023-02-08T23:19:39.688Z,0.95
2023-02-08T23:22:07.699Z,1.07
2023-02-08T23:24:35.750Z,1.07
2023-02-08T23:27:05.441Z,1.06
2023-02-08T23:29:33.526Z,1.01
2023-02-08T23:32:01.473Z,0.99
2023-02-08T23:34:29.859Z,1.04
2023-02-08T23:36:57.873Z,0.99
2023-02-08T23:39:28.874Z,0.97
2023-02-08T23:41:57.126Z,1.00
2023-02-08T23:44:26.593Z,0.99
2023-02-08T23:46:54.597Z,0.99
2023-02-08T23:49:22.765Z,0.96
2023-02-08T23:51:50.585Z,0.99
2023-02-08T23:54:18.486Z,0.86
2023-02-08T23:56:46.350Z,0.86
2023-02-08T23:59:14.157Z,0.89
